sensor_id;sensor_type;location;lat;lon;timestamp;P1;durP1;ratioP1;P2;durP2;ratioP2
13485;SDS011;6815;59.336;17.998;2024-01-15T00:00:21;2.63;;;0.60;;
13485;SDS011;6815;59.336;17.998;2024-01-15T00:02:47;0.80;;;0.47;;
13485;SDS011;6815;59.336;17.998;2024-01-15T00:05:12;0.50;;;0.40;;
13485;SDS011;6815;59.336;17.998;2024-01-15T00:07:38;2.50;;;0.60;;
13485;SDS011;6815;59.336;17.998;2024-01-15T00:10:03;1.87;;;0.63;;
13485;SDS011;6815;59.336;17.998;2024-01-15T00:12:29;0.63;;;0.50;;
13485;SDS011;6815;59.336;17.998;2024-01-15T00:14:55;0.73;;;0.43;;
13485;SDS011;6815;59.336;17.998;2024-01-15T00:17:20;1.13;;;0.60;;
13485;SDS011;6815;59.336;17.998;2024-01-15T00:19:46;1.03;;;0.50;;
13485;SDS011;6815;59.336;17.998;2024-01-15T00:22:11;2.23;;;0.43;;
13485;SDS011;6815;59.336;17.998;2024-01-15T00:24:37;3.70;;;0.67;;
13485;SDS011;6815;59.336;17.998;2024-01-15T00:27:02;1.20;;;0.60;;
13485;SDS011;6815;59.336;17.998;2024-01-15T00:29:28;2.03;;;0.70;;
13485;SDS011;6815;59.336;17.998;2024-01-15T00:31:53;4.13;;;0.57;;
13485;SDS011;6815;59.336;17.998;2024-01-15T00:34:19;0.33;;;0.33;;
13485;SDS011;6815;59.336;17.998;2024-01-15T00:36:44;1.40;;;0.50;;
13485;SDS011;6815;59.336;17.998;2024-01-15T00:39:10;1.43;;;0.50;;
13485;SDS011;6815;59.336;17.998;2024-01-15T00:41:36;0.67;;;0.53;;
13485;SDS011;6815;59.336;17.998;2024-01-15T00:44:03;1.63;;;0.50;;
13485;SDS011;6815;59.336;17.998;2024-01-15T00:46:28;1.43;;;0.50;;
13485;SDS011;6815;59.336;17.998;2024-01-15T00:48:54;2.40;;;0.63;;
13485;SDS011;6815;59.336;17.998;2024-01-15T00:51:20;1.37;;;0.70;;
13485;SDS011;6815;59.336;17.998;2024-01-15T00:53:45;2.17;;;0.73;;
13485;SDS011;6815;59.336;17.998;2024-01-15T00:56:11;1.53;;;0.60;;
13485;SDS011;6815;59.336;17.998;2024-01-15T00:58:36;1.30;;;0.50;;
13485;SDS011;6815;59.336;17.998;2024-01-15T01:01:02;1.70;;;0.40;;
13485;SDS011;6815;59.336;17.998;2024-01-15T01:03:27;1.57;;;0.70;;
13485;SDS011;6815;59.336;17.998;2024-01-15T01:05:53;1.37;;;0.50;;
13485;SDS011;6815;59.336;17.998;2024-01-15T01:08:18;0.93;;;0.30;;
13485;SDS011;6815;59.336;17.998;2024-01-15T01:10:44;4.07;;;0.50;;
13485;SDS011;6815;59.336;17.998;2024-01-15T01:13:09;0.50;;;0.40;;
13485;SDS011;6815;59.336;17.998;2024-01-15T01:15:35;1.40;;;0.60;;
13485;SDS011;6815;59.336;17.998;2024-01-15T01:18:01;0.83;;;0.60;;
13485;SDS011;6815;59.336;17.998;2024-01-15T01:20:26;1.33;;;0.50;;
13485;SDS011;6815;59.336;17.998;2024-01-15T01:22:52;1.50;;;0.40;;
13485;SDS011;6815;59.336;17.998;2024-01-15T01:25:18;0.50;;;0.40;;
13485;SDS011;6815;59.336;17.998;2024-01-15T01:27:44;0.50;;;0.50;;
13485;SDS011;6815;59.336;17.998;2024-01-15T01:30:09;1.77;;;0.60;;
13485;SDS011;6815;59.336;17.998;2024-01-15T01:32:35;1.33;;;0.57;;
13485;SDS011;6815;59.336;17.998;2024-01-15T01:35:00;1.17;;;0.50;;
13485;SDS011;6815;59.336;17.998;2024-01-15T01:37:26;0.70;;;0.50;;
13485;SDS011;6815;59.336;17.998;2024-01-15T01:39:51;2.43;;;0.60;;
13485;SDS011;6815;59.336;17.998;2024-01-15T01:42:17;3.03;;;0.43;;
13485;SDS011;6815;59.336;17.998;2024-01-15T01:44:42;0.87;;;0.50;;
13485;SDS011;6815;59.336;17.998;2024-01-15T01:47:08;0.80;;;0.47;;
13485;SDS011;6815;59.336;17.998;2024-01-15T01:49:34;1.37;;;0.50;;
13485;SDS011;6815;59.336;17.998;2024-01-15T01:52:01;4.90;;;1.23;;
13485;SDS011;6815;59.336;17.998;2024-01-15T01:54:28;4.17;;;0.77;;
13485;SDS011;6815;59.336;17.998;2024-01-15T01:56:56;2.83;;;0.60;;
13485;SDS011;6815;59.336;17.998;2024-01-15T01:59:22;1.57;;;0.60;;
13485;SDS011;6815;59.336;17.998;2024-01-15T02:01:48;1.50;;;0.50;;
13485;SDS011;6815;59.336;17.998;2024-01-15T02:04:15;2.60;;;0.60;;
13485;SDS011;6815;59.336;17.998;2024-01-15T02:06:41;0.60;;;0.53;;
13485;SDS011;6815;59.336;17.998;2024-01-15T02:09:07;1.03;;;0.40;;
13485;SDS011;6815;59.336;17.998;2024-01-15T02:11:34;3.70;;;0.60;;
13485;SDS011;6815;59.336;17.998;2024-01-15T02:13:59;1.37;;;0.70;;
13485;SDS011;6815;59.336;17.998;2024-01-15T02:16:26;1.97;;;0.70;;
13485;SDS011;6815;59.336;17.998;2024-01-15T02:18:51;1.90;;;0.70;;
13485;SDS011;6815;59.336;17.998;2024-01-15T02:21:17;1.20;;;0.60;;
13485;SDS011;6815;59.336;17.998;2024-01-15T02:23:42;2.87;;;0.70;;
13485;SDS011;6815;59.336;17.998;2024-01-15T02:26:08;3.67;;;0.60;;
13485;SDS011;6815;59.336;17.998;2024-01-15T02:28:34;1.30;;;0.40;;
13485;SDS011;6815;59.336;17.998;2024-01-15T02:30:59;1.73;;;0.50;;
13485;SDS011;6815;59.336;17.998;2024-01-15T02:33:25;3.40;;;0.67;;
13485;SDS011;6815;59.336;17.998;2024-01-15T02:35:51;1.17;;;0.53;;
13485;SDS011;6815;59.336;17.998;2024-01-15T02:38:16;1.23;;;0.70;;
13485;SDS011;6815;59.336;17.998;2024-01-15T02:40:43;3.23;;;0.60;;
13485;SDS011;6815;59.336;17.998;2024-01-15T02:43:09;1.20;;;0.60;;
13485;SDS011;6815;59.336;17.998;2024-01-15T02:45:35;2.43;;;0.57;;
13485;SDS011;6815;59.336;17.998;2024-01-15T02:48:00;1.23;;;0.70;;
13485;SDS011;6815;59.336;17.998;2024-01-15T02:50:26;1.43;;;0.50;;
13485;SDS011;6815;59.336;17.998;2024-01-15T02:52:51;1.87;;;0.80;;
13485;SDS011;6815;59.336;17.998;2024-01-15T02:55:17;3.57;;;0.77;;
13485;SDS011;6815;59.336;17.998;2024-01-15T02:57:43;0.57;;;0.40;;
13485;SDS011;6815;59.336;17.998;2024-01-15T03:00:08;0.50;;;0.40;;
13485;SDS011;6815;59.336;17.998;2024-01-15T03:02:38;1.63;;;0.50;;
13485;SDS011;6815;59.336;17.998;2024-01-15T03:05:06;1.33;;;0.50;;
13485;SDS011;6815;59.336;17.998;2024-01-15T03:07:32;0.40;;;0.40;;
13485;SDS011;6815;59.336;17.998;2024-01-15T03:09:58;1.27;;;0.50;;
13485;SDS011;6815;59.336;17.998;2024-01-15T03:12:23;1.70;;;0.67;;
13485;SDS011;6815;59.336;17.998;2024-01-15T03:14:49;1.67;;;0.50;;
13485;SDS011;6815;59.336;17.998;2024-01-15T03:17:14;1.03;;;0.53;;
13485;SDS011;6815;59.336;17.998;2024-01-15T03:19:40;2.10;;;0.80;;
13485;SDS011;6815;59.336;17.998;2024-01-15T03:22:05;1.60;;;0.40;;
13485;SDS011;6815;59.336;17.998;2024-01-15T03:24:33;2.27;;;0.60;;
13485;SDS011;6815;59.336;17.998;2024-01-15T03:26:58;0.97;;;0.60;;
13485;SDS011;6815;59.336;17.998;2024-01-15T03:29:25;0.87;;;0.50;;
13485;SDS011;6815;59.336;17.998;2024-01-15T03:31:51;1.70;;;0.67;;
13485;SDS011;6815;59.336;17.998;2024-01-15T03:34:17;0.90;;;0.40;;
13485;SDS011;6815;59.336;17.998;2024-01-15T03:36:42;0.77;;;0.50;;
13485;SDS011;6815;59.336;17.998;2024-01-15T03:39:08;0.60;;;0.47;;
13485;SDS011;6815;59.336;17.998;2024-01-15T03:41:33;0.90;;;0.57;;
13485;SDS011;6815;59.336;17.998;2024-01-15T03:43:58;0.70;;;0.50;;
13485;SDS011;6815;59.336;17.998;2024-01-15T03:46:24;1.00;;;0.60;;
13485;SDS011;6815;59.336;17.998;2024-01-15T03:48:50;0.93;;;0.50;;
13485;SDS011;6815;59.336;17.998;2024-01-15T03:51:17;2.83;;;0.70;;
13485;SDS011;6815;59.336;17.998;2024-01-15T03:53:42;0.80;;;0.57;;
13485;SDS011;6815;59.336;17.998;2024-01-15T03:56:08;1.33;;;0.40;;
13485;SDS011;6815;59.336;17.998;2024-01-15T03:58:34;1.83;;;0.70;;
13485;SDS011;6815;59.336;17.998;2024-01-15T04:00:59;1.43;;;0.47;;
13485;SDS011;6815;59.336;17.998;2024-01-15T04:03:25;3.20;;;0.70;;
13485;SDS011;6815;59.336;17.998;2024-01-15T04:05:50;3.57;;;0.67;;
13485;SDS011;6815;59.336;17.998;2024-01-15T04:08:16;3.43;;;0.90;;
13485;SDS011;6815;59.336;17.998;2024-01-15T04:10:41;3.90;;;0.67;;
13485;SDS011;6815;59.336;17.998;2024-01-15T04:13:07;1.97;;;0.80;;
13485;SDS011;6815;59.336;17.998;2024-01-15T04:15:32;1.77;;;0.60;;
13485;SDS011;6815;59.336;17.998;2024-01-15T04:17:58;1.50;;;0.60;;
13485;SDS011;6815;59.336;17.998;2024-01-15T04:20:23;1.53;;;0.70;;
13485;SDS011;6815;59.336;17.998;2024-01-15T04:22:49;0.70;;;0.70;;
13485;SDS011;6815;59.336;17.998;2024-01-15T04:25:14;2.70;;;0.90;;
13485;SDS011;6815;59.336;17.998;2024-01-15T04:27:40;2.77;;;0.80;;
13485;SDS011;6815;59.336;17.998;2024-01-15T04:30:06;2.77;;;0.80;;
13485;SDS011;6815;59.336;17.998;2024-01-15T04:32:32;1.77;;;0.63;;
13485;SDS011;6815;59.336;17.998;2024-01-15T04:34:57;2.40;;;0.70;;
13485;SDS011;6815;59.336;17.998;2024-01-15T04:37:22;2.60;;;0.90;;
13485;SDS011;6815;59.336;17.998;2024-01-15T04:39:48;2.10;;;0.70;;
13485;SDS011;6815;59.336;17.998;2024-01-15T04:42:13;0.70;;;0.70;;
13485;SDS011;6815;59.336;17.998;2024-01-15T04:44:39;0.80;;;0.80;;
13485;SDS011;6815;59.336;17.998;2024-01-15T04:47:04;0.70;;;0.70;;
13485;SDS011;6815;59.336;17.998;2024-01-15T04:49:30;5.13;;;1.17;;
13485;SDS011;6815;59.336;17.998;2024-01-15T04:51:55;1.03;;;0.73;;
13485;SDS011;6815;59.336;17.998;2024-01-15T04:54:21;2.20;;;1.00;;
13485;SDS011;6815;59.336;17.998;2024-01-15T04:56:46;3.03;;;0.90;;
13485;SDS011;6815;59.336;17.998;2024-01-15T04:59:13;2.20;;;0.90;;
13485;SDS011;6815;59.336;17.998;2024-01-15T05:01:39;1.63;;;0.97;;
13485;SDS011;6815;59.336;17.998;2024-01-15T05:04:05;0.83;;;0.83;;
13485;SDS011;6815;59.336;17.998;2024-01-15T05:06:30;1.27;;;0.87;;
13485;SDS011;6815;59.336;17.998;2024-01-15T05:08:56;2.30;;;1.10;;
13485;SDS011;6815;59.336;17.998;2024-01-15T05:11:22;2.80;;;1.00;;
13485;SDS011;6815;59.336;17.998;2024-01-15T05:13:48;4.20;;;1.20;;
13485;SDS011;6815;59.336;17.998;2024-01-15T05:16:13;1.47;;;1.17;;
13485;SDS011;6815;59.336;17.998;2024-01-15T05:18:39;2.23;;;1.00;;
13485;SDS011;6815;59.336;17.998;2024-01-15T05:21:04;1.53;;;0.90;;
13485;SDS011;6815;59.336;17.998;2024-01-15T05:23:30;1.20;;;0.97;;
13485;SDS011;6815;59.336;17.998;2024-01-15T05:25:56;2.63;;;1.10;;
13485;SDS011;6815;59.336;17.998;2024-01-15T05:28:22;2.47;;;1.13;;
13485;SDS011;6815;59.336;17.998;2024-01-15T05:30:48;1.53;;;0.97;;
13485;SDS011;6815;59.336;17.998;2024-01-15T05:33:15;1.67;;;1.20;;
13485;SDS011;6815;59.336;17.998;2024-01-15T05:35:41;2.23;;;0.97;;
13485;SDS011;6815;59.336;17.998;2024-01-15T05:38:07;1.67;;;1.10;;
13485;SDS011;6815;59.336;17.998;2024-01-15T05:40:32;1.50;;;1.10;;
13485;SDS011;6815;59.336;17.998;2024-01-15T05:42:58;1.83;;;1.00;;
13485;SDS011;6815;59.336;17.998;2024-01-15T05:45:23;1.77;;;1.00;;
13485;SDS011;6815;59.336;17.998;2024-01-15T05:47:51;2.23;;;1.50;;
13485;SDS011;6815;59.336;17.998;2024-01-15T05:50:16;1.00;;;0.90;;
13485;SDS011;6815;59.336;17.998;2024-01-15T05:52:41;2.40;;;1.10;;
13485;SDS011;6815;59.336;17.998;2024-01-15T05:55:07;2.93;;;1.10;;
13485;SDS011;6815;59.336;17.998;2024-01-15T05:57:33;1.70;;;1.10;;
13485;SDS011;6815;59.336;17.998;2024-01-15T05:59:58;2.57;;;1.03;;
13485;SDS011;6815;59.336;17.998;2024-01-15T06:02:24;3.20;;;1.27;;
13485;SDS011;6815;59.336;17.998;2024-01-15T06:04:49;1.90;;;0.90;;
13485;SDS011;6815;59.336;17.998;2024-01-15T06:07:15;2.40;;;1.10;;
13485;SDS011;6815;59.336;17.998;2024-01-15T06:09:40;2.30;;;1.07;;
13485;SDS011;6815;59.336;17.998;2024-01-15T06:12:06;1.60;;;1.10;;
13485;SDS011;6815;59.336;17.998;2024-01-15T06:14:32;4.87;;;1.30;;
13485;SDS011;6815;59.336;17.998;2024-01-15T06:16:58;1.30;;;0.93;;
13485;SDS011;6815;59.336;17.998;2024-01-15T06:19:23;1.10;;;0.73;;
13485;SDS011;6815;59.336;17.998;2024-01-15T06:21:49;1.37;;;1.10;;
13485;SDS011;6815;59.336;17.998;2024-01-15T06:24:14;1.57;;;1.23;;
13485;SDS011;6815;59.336;17.998;2024-01-15T06:26:40;2.47;;;1.20;;
13485;SDS011;6815;59.336;17.998;2024-01-15T06:29:06;1.87;;;1.20;;
13485;SDS011;6815;59.336;17.998;2024-01-15T06:31:31;3.90;;;1.20;;
13485;SDS011;6815;59.336;17.998;2024-01-15T06:33:57;1.73;;;0.90;;
13485;SDS011;6815;59.336;17.998;2024-01-15T06:36:23;2.07;;;1.43;;
13485;SDS011;6815;59.336;17.998;2024-01-15T06:38:48;1.37;;;1.00;;
13485;SDS011;6815;59.336;17.998;2024-01-15T06:41:14;3.90;;;1.73;;
13485;SDS011;6815;59.336;17.998;2024-01-15T06:43:39;4.23;;;1.53;;
13485;SDS011;6815;59.336;17.998;2024-01-15T06:46:05;2.10;;;1.77;;
13485;SDS011;6815;59.336;17.998;2024-01-15T06:48:30;3.27;;;1.67;;
13485;SDS011;6815;59.336;17.998;2024-01-15T06:50:56;5.17;;;1.50;;
13485;SDS011;6815;59.336;17.998;2024-01-15T06:53:21;3.27;;;1.57;;
13485;SDS011;6815;59.336;17.998;2024-01-15T06:55:47;3.20;;;1.60;;
13485;SDS011;6815;59.336;17.998;2024-01-15T06:58:14;3.20;;;1.67;;
13485;SDS011;6815;59.336;17.998;2024-01-15T07:00:39;3.17;;;1.50;;
13485;SDS011;6815;59.336;17.998;2024-01-15T07:03:05;1.83;;;1.60;;
13485;SDS011;6815;59.336;17.998;2024-01-15T07:05:31;3.50;;;1.60;;
13485;SDS011;6815;59.336;17.998;2024-01-15T07:07:57;3.00;;;1.50;;
13485;SDS011;6815;59.336;17.998;2024-01-15T07:10:22;2.87;;;1.60;;
13485;SDS011;6815;59.336;17.998;2024-01-15T07:12:48;4.43;;;1.50;;
13485;SDS011;6815;59.336;17.998;2024-01-15T07:15:14;3.87;;;1.37;;
13485;SDS011;6815;59.336;17.998;2024-01-15T07:17:40;1.80;;;1.20;;
13485;SDS011;6815;59.336;17.998;2024-01-15T07:20:06;4.40;;;1.37;;
13485;SDS011;6815;59.336;17.998;2024-01-15T07:22:35;1.60;;;1.50;;
13485;SDS011;6815;59.336;17.998;2024-01-15T07:25:01;2.63;;;1.70;;
13485;SDS011;6815;59.336;17.998;2024-01-15T07:27:27;2.60;;;1.80;;
13485;SDS011;6815;59.336;17.998;2024-01-15T07:29:53;4.53;;;1.50;;
13485;SDS011;6815;59.336;17.998;2024-01-15T07:32:18;1.90;;;1.20;;
13485;SDS011;6815;59.336;17.998;2024-01-15T07:34:45;1.37;;;1.10;;
13485;SDS011;6815;59.336;17.998;2024-01-15T07:37:11;1.67;;;1.20;;
13485;SDS011;6815;59.336;17.998;2024-01-15T07:39:36;1.73;;;1.10;;
13485;SDS011;6815;59.336;17.998;2024-01-15T07:42:02;2.77;;;1.07;;
13485;SDS011;6815;59.336;17.998;2024-01-15T07:44:27;5.27;;;1.03;;
13485;SDS011;6815;59.336;17.998;2024-01-15T07:46:53;1.80;;;0.90;;
13485;SDS011;6815;59.336;17.998;2024-01-15T07:49:18;2.57;;;0.90;;
13485;SDS011;6815;59.336;17.998;2024-01-15T07:51:44;2.23;;;1.30;;
13485;SDS011;6815;59.336;17.998;2024-01-15T07:54:09;1.27;;;0.70;;
13485;SDS011;6815;59.336;17.998;2024-01-15T07:56:56;2.87;;;0.80;;
13485;SDS011;6815;59.336;17.998;2024-01-15T07:59:22;1.83;;;0.70;;
13485;SDS011;6815;59.336;17.998;2024-01-15T08:01:48;2.13;;;0.73;;
13485;SDS011;6815;59.336;17.998;2024-01-15T08:04:14;1.97;;;0.90;;
13485;SDS011;6815;59.336;17.998;2024-01-15T08:06:40;2.87;;;0.77;;
13485;SDS011;6815;59.336;17.998;2024-01-15T08:09:05;1.20;;;0.60;;
13485;SDS011;6815;59.336;17.998;2024-01-15T08:11:31;1.03;;;0.60;;
13485;SDS011;6815;59.336;17.998;2024-01-15T08:13:56;1.50;;;0.70;;
13485;SDS011;6815;59.336;17.998;2024-01-15T08:16:22;1.80;;;0.47;;
13485;SDS011;6815;59.336;17.998;2024-01-15T08:18:49;5.13;;;0.73;;
13485;SDS011;6815;59.336;17.998;2024-01-15T08:21:15;2.10;;;0.40;;
13485;SDS011;6815;59.336;17.998;2024-01-15T08:23:40;2.00;;;0.63;;
13485;SDS011;6815;59.336;17.998;2024-01-15T08:26:06;2.33;;;0.40;;
13485;SDS011;6815;59.336;17.998;2024-01-15T08:28:32;4.60;;;0.60;;
13485;SDS011;6815;59.336;17.998;2024-01-15T08:30:57;0.80;;;0.60;;
13485;SDS011;6815;59.336;17.998;2024-01-15T08:33:23;2.20;;;0.70;;
13485;SDS011;6815;59.336;17.998;2024-01-15T08:35:48;0.40;;;0.40;;
13485;SDS011;6815;59.336;17.998;2024-01-15T08:38:14;0.83;;;0.50;;
13485;SDS011;6815;59.336;17.998;2024-01-15T08:40:39;2.07;;;0.60;;
13485;SDS011;6815;59.336;17.998;2024-01-15T08:43:05;1.33;;;0.40;;
13485;SDS011;6815;59.336;17.998;2024-01-15T08:45:31;0.70;;;0.40;;
13485;SDS011;6815;59.336;17.998;2024-01-15T08:47:57;1.50;;;0.60;;
13485;SDS011;6815;59.336;17.998;2024-01-15T08:50:23;1.73;;;0.60;;
13485;SDS011;6815;59.336;17.998;2024-01-15T08:52:49;1.10;;;0.40;;
13485;SDS011;6815;59.336;17.998;2024-01-15T08:55:14;2.07;;;0.67;;
13485;SDS011;6815;59.336;17.998;2024-01-15T08:57:40;1.67;;;0.60;;
13485;SDS011;6815;59.336;17.998;2024-01-15T09:00:05;1.63;;;0.70;;
13485;SDS011;6815;59.336;17.998;2024-01-15T09:02:33;0.50;;;0.40;;
13485;SDS011;6815;59.336;17.998;2024-01-15T09:05:00;2.03;;;0.60;;
13485;SDS011;6815;59.336;17.998;2024-01-15T09:07:25;1.03;;;0.37;;
13485;SDS011;6815;59.336;17.998;2024-01-15T09:09:52;3.50;;;0.60;;
13485;SDS011;6815;59.336;17.998;2024-01-15T09:12:17;1.23;;;0.40;;
13485;SDS011;6815;59.336;17.998;2024-01-15T09:14:43;2.53;;;0.40;;
13485;SDS011;6815;59.336;17.998;2024-01-15T09:17:09;0.93;;;0.47;;
13485;SDS011;6815;59.336;17.998;2024-01-15T09:19:35;1.40;;;0.40;;
13485;SDS011;6815;59.336;17.998;2024-01-15T09:22:00;0.93;;;0.77;;
13485;SDS011;6815;59.336;17.998;2024-01-15T09:24:26;0.60;;;0.50;;
13485;SDS011;6815;59.336;17.998;2024-01-15T09:26:51;1.37;;;0.50;;
13485;SDS011;6815;59.336;17.998;2024-01-15T09:29:17;1.80;;;0.60;;
13485;SDS011;6815;59.336;17.998;2024-01-15T09:31:43;1.33;;;0.40;;
13485;SDS011;6815;59.336;17.998;2024-01-15T09:34:09;2.23;;;0.50;;
13485;SDS011;6815;59.336;17.998;2024-01-15T09:36:41;2.13;;;0.50;;
13485;SDS011;6815;59.336;17.998;2024-01-15T09:39:09;2.30;;;0.60;;
13485;SDS011;6815;59.336;17.998;2024-01-15T09:41:36;0.80;;;0.60;;
13485;SDS011;6815;59.336;17.998;2024-01-15T09:44:05;1.20;;;0.53;;
13485;SDS011;6815;59.336;17.998;2024-01-15T09:46:32;1.40;;;0.53;;
13485;SDS011;6815;59.336;17.998;2024-01-15T09:48:59;1.53;;;0.60;;
13485;SDS011;6815;59.336;17.998;2024-01-15T09:51:25;2.70;;;0.57;;
13485;SDS011;6815;59.336;17.998;2024-01-15T09:53:50;3.10;;;0.60;;
13485;SDS011;6815;59.336;17.998;2024-01-15T09:56:16;1.67;;;0.50;;
13485;SDS011;6815;59.336;17.998;2024-01-15T09:58:42;2.67;;;0.53;;
13485;SDS011;6815;59.336;17.998;2024-01-15T10:01:08;1.37;;;0.30;;
13485;SDS011;6815;59.336;17.998;2024-01-15T10:03:34;3.33;;;0.63;;
13485;SDS011;6815;59.336;17.998;2024-01-15T10:06:00;3.47;;;0.53;;
13485;SDS011;6815;59.336;17.998;2024-01-15T10:08:27;0.60;;;0.50;;
13485;SDS011;6815;59.336;17.998;2024-01-15T10:10:53;5.10;;;0.80;;
13485;SDS011;6815;59.336;17.998;2024-01-15T10:13:18;1.73;;;0.60;;
13485;SDS011;6815;59.336;17.998;2024-01-15T10:15:46;3.70;;;0.50;;
13485;SDS011;6815;59.336;17.998;2024-01-15T10:18:14;1.23;;;0.50;;
13485;SDS011;6815;59.336;17.998;2024-01-15T10:20:40;0.90;;;0.60;;
13485;SDS011;6815;59.336;17.998;2024-01-15T10:23:05;0.80;;;0.47;;
13485;SDS011;6815;59.336;17.998;2024-01-15T10:25:31;0.73;;;0.57;;
13485;SDS011;6815;59.336;17.998;2024-01-15T10:28:03;2.57;;;0.53;;
13485;SDS011;6815;59.336;17.998;2024-01-15T10:30:29;2.23;;;0.60;;
13485;SDS011;6815;59.336;17.998;2024-01-15T10:33:02;2.93;;;0.90;;
13485;SDS011;6815;59.336;17.998;2024-01-15T10:35:29;1.70;;;0.70;;
13485;SDS011;6815;59.336;17.998;2024-01-15T10:38:00;2.83;;;0.80;;
13485;SDS011;6815;59.336;17.998;2024-01-15T10:40:26;0.60;;;0.40;;
13485;SDS011;6815;59.336;17.998;2024-01-15T10:42:52;2.27;;;0.60;;
13485;SDS011;6815;59.336;17.998;2024-01-15T10:45:18;0.40;;;0.40;;
13485;SDS011;6815;59.336;17.998;2024-01-15T10:47:44;1.90;;;0.50;;
13485;SDS011;6815;59.336;17.998;2024-01-15T10:50:10;1.33;;;0.53;;
13485;SDS011;6815;59.336;17.998;2024-01-15T10:52:39;0.90;;;0.50;;
13485;SDS011;6815;59.336;17.998;2024-01-15T10:55:08;1.70;;;0.60;;
13485;SDS011;6815;59.336;17.998;2024-01-15T10:57:35;1.20;;;0.60;;
13485;SDS011;6815;59.336;17.998;2024-01-15T11:00:02;0.90;;;0.40;;
13485;SDS011;6815;59.336;17.998;2024-01-15T11:02:31;1.50;;;0.60;;
13485;SDS011;6815;59.336;17.998;2024-01-15T11:04:59;7.97;;;1.00;;
13485;SDS011;6815;59.336;17.998;2024-01-15T11:07:26;2.77;;;0.80;;
13485;SDS011;6815;59.336;17.998;2024-01-15T11:09:52;0.97;;;0.50;;
13485;SDS011;6815;59.336;17.998;2024-01-15T11:12:17;1.07;;;0.50;;
13485;SDS011;6815;59.336;17.998;2024-01-15T11:17:13;0.43;;;0.43;;
13485;SDS011;6815;59.336;17.998;2024-01-15T11:19:47;3.43;;;0.50;;
13485;SDS011;6815;59.336;17.998;2024-01-15T11:24:54;0.43;;;0.43;;
13485;SDS011;6815;59.336;17.998;2024-01-15T11:27:39;1.70;;;0.50;;
13485;SDS011;6815;59.336;17.998;2024-01-15T11:30:06;0.50;;;0.40;;
13485;SDS011;6815;59.336;17.998;2024-01-15T11:32:34;0.70;;;0.40;;
13485;SDS011;6815;59.336;17.998;2024-01-15T11:35:01;2.97;;;0.60;;
13485;SDS011;6815;59.336;17.998;2024-01-15T11:37:28;0.60;;;0.60;;
13485;SDS011;6815;59.336;17.998;2024-01-15T11:40:14;0.40;;;0.40;;
13485;SDS011;6815;59.336;17.998;2024-01-15T11:42:44;2.33;;;0.43;;
13485;SDS011;6815;59.336;17.998;2024-01-15T11:45:10;1.10;;;0.50;;
13485;SDS011;6815;59.336;17.998;2024-01-15T11:50:31;0.70;;;0.50;;
13485;SDS011;6815;59.336;17.998;2024-01-15T11:53:00;0.37;;;0.37;;
13485;SDS011;6815;59.336;17.998;2024-01-15T11:55:33;2.07;;;0.60;;
13485;SDS011;6815;59.336;17.998;2024-01-15T11:58:00;1.50;;;0.70;;
13485;SDS011;6815;59.336;17.998;2024-01-15T12:00:27;0.80;;;0.40;;
13485;SDS011;6815;59.336;17.998;2024-01-15T12:02:53;0.60;;;0.40;;
13485;SDS011;6815;59.336;17.998;2024-01-15T12:05:19;0.47;;;0.30;;
13485;SDS011;6815;59.336;17.998;2024-01-15T12:07:46;0.30;;;0.30;;
13485;SDS011;6815;59.336;17.998;2024-01-15T12:10:14;2.00;;;0.87;;
13485;SDS011;6815;59.336;17.998;2024-01-15T12:12:56;1.97;;;0.50;;
13485;SDS011;6815;59.336;17.998;2024-01-15T12:15:22;0.60;;;0.53;;
13485;SDS011;6815;59.336;17.998;2024-01-15T12:17:48;0.40;;;0.40;;
13485;SDS011;6815;59.336;17.998;2024-01-15T12:20:14;0.70;;;0.50;;
13485;SDS011;6815;59.336;17.998;2024-01-15T12:22:41;1.20;;;0.47;;
13485;SDS011;6815;59.336;17.998;2024-01-15T12:25:06;0.37;;;0.37;;
13485;SDS011;6815;59.336;17.998;2024-01-15T12:27:32;2.93;;;0.50;;
13485;SDS011;6815;59.336;17.998;2024-01-15T12:29:58;0.90;;;0.50;;
13485;SDS011;6815;59.336;17.998;2024-01-15T12:32:24;1.13;;;0.40;;
13485;SDS011;6815;59.336;17.998;2024-01-15T12:34:50;1.30;;;0.53;;
13485;SDS011;6815;59.336;17.998;2024-01-15T12:37:19;2.80;;;0.50;;
13485;SDS011;6815;59.336;17.998;2024-01-15T12:39:45;1.33;;;0.73;;
13485;SDS011;6815;59.336;17.998;2024-01-15T12:42:11;0.73;;;0.60;;
13485;SDS011;6815;59.336;17.998;2024-01-15T12:44:36;2.50;;;0.50;;
13485;SDS011;6815;59.336;17.998;2024-01-15T12:47:05;2.33;;;0.50;;
13485;SDS011;6815;59.336;17.998;2024-01-15T12:49:31;1.30;;;0.40;;
13485;SDS011;6815;59.336;17.998;2024-01-15T12:51:57;0.30;;;0.30;;
13485;SDS011;6815;59.336;17.998;2024-01-15T12:54:23;2.17;;;0.70;;
13485;SDS011;6815;59.336;17.998;2024-01-15T12:56:50;1.00;;;0.60;;
13485;SDS011;6815;59.336;17.998;2024-01-15T12:59:16;1.30;;;0.40;;
13485;SDS011;6815;59.336;17.998;2024-01-15T13:01:41;0.73;;;0.43;;
13485;SDS011;6815;59.336;17.998;2024-01-15T13:04:07;2.30;;;0.40;;
13485;SDS011;6815;59.336;17.998;2024-01-15T13:06:36;1.97;;;0.53;;
13485;SDS011;6815;59.336;17.998;2024-01-15T13:09:04;1.23;;;0.67;;
13485;SDS011;6815;59.336;17.998;2024-01-15T13:11:35;1.87;;;0.60;;
13485;SDS011;6815;59.336;17.998;2024-01-15T13:14:00;5.23;;;0.53;;
13485;SDS011;6815;59.336;17.998;2024-01-15T13:16:26;0.80;;;0.60;;
13485;SDS011;6815;59.336;17.998;2024-01-15T13:18:55;2.23;;;0.50;;
13485;SDS011;6815;59.336;17.998;2024-01-15T13:21:21;3.40;;;0.50;;
13485;SDS011;6815;59.336;17.998;2024-01-15T13:23:47;2.50;;;0.50;;
13485;SDS011;6815;59.336;17.998;2024-01-15T13:26:13;0.97;;;0.60;;
13485;SDS011;6815;59.336;17.998;2024-01-15T13:28:39;1.80;;;0.43;;
13485;SDS011;6815;59.336;17.998;2024-01-15T13:31:05;0.73;;;0.43;;
13485;SDS011;6815;59.336;17.998;2024-01-15T13:33:30;0.80;;;0.40;;
13485;SDS011;6815;59.336;17.998;2024-01-15T13:35:56;1.60;;;0.80;;
13485;SDS011;6815;59.336;17.998;2024-01-15T13:38:21;2.13;;;0.50;;
13485;SDS011;6815;59.336;17.998;2024-01-15T13:40:47;2.80;;;0.70;;
13485;SDS011;6815;59.336;17.998;2024-01-15T13:43:12;3.17;;;0.90;;
13485;SDS011;6815;59.336;17.998;2024-01-15T13:45:39;1.57;;;0.60;;
13485;SDS011;6815;59.336;17.998;2024-01-15T13:48:06;2.13;;;0.70;;
13485;SDS011;6815;59.336;17.998;2024-01-15T13:50:33;4.57;;;0.80;;
13485;SDS011;6815;59.336;17.998;2024-01-15T13:53:00;5.67;;;0.77;;
13485;SDS011;6815;59.336;17.998;2024-01-15T13:55:25;1.67;;;0.50;;
13485;SDS011;6815;59.336;17.998;2024-01-15T13:57:50;3.47;;;0.60;;
13485;SDS011;6815;59.336;17.998;2024-01-15T14:00:16;2.23;;;0.50;;
13485;SDS011;6815;59.336;17.998;2024-01-15T14:02:45;2.60;;;0.40;;
13485;SDS011;6815;59.336;17.998;2024-01-15T14:05:11;0.97;;;0.50;;
13485;SDS011;6815;59.336;17.998;2024-01-15T14:07:40;0.50;;;0.50;;
13485;SDS011;6815;59.336;17.998;2024-01-15T14:10:10;0.80;;;0.47;;
13485;SDS011;6815;59.336;17.998;2024-01-15T14:12:37;2.37;;;0.70;;
13485;SDS011;6815;59.336;17.998;2024-01-15T14:15:02;0.70;;;0.40;;
13485;SDS011;6815;59.336;17.998;2024-01-15T14:17:28;0.97;;;0.50;;
13485;SDS011;6815;59.336;17.998;2024-01-15T14:19:54;1.80;;;0.60;;
13485;SDS011;6815;59.336;17.998;2024-01-15T14:22:20;2.40;;;0.70;;
13485;SDS011;6815;59.336;17.998;2024-01-15T14:24:45;2.47;;;0.70;;
13485;SDS011;6815;59.336;17.998;2024-01-15T14:27:11;0.63;;;0.50;;
13485;SDS011;6815;59.336;17.998;2024-01-15T14:29:36;1.07;;;0.60;;
13485;SDS011;6815;59.336;17.998;2024-01-15T14:32:02;2.33;;;0.80;;
13485;SDS011;6815;59.336;17.998;2024-01-15T14:34:27;1.80;;;0.63;;
13485;SDS011;6815;59.336;17.998;2024-01-15T14:36:53;1.83;;;1.27;;
13485;SDS011;6815;59.336;17.998;2024-01-15T14:39:19;0.90;;;0.60;;
13485;SDS011;6815;59.336;17.998;2024-01-15T14:41:45;1.43;;;0.60;;
13485;SDS011;6815;59.336;17.998;2024-01-15T14:44:11;1.20;;;0.50;;
13485;SDS011;6815;59.336;17.998;2024-01-15T14:46:37;2.73;;;0.60;;
13485;SDS011;6815;59.336;17.998;2024-01-15T14:49:03;2.27;;;0.60;;